createdAt,value
2022-08-03T05:57:58.938Z,0
2022-08-03T06:02:58.122Z,0
2022-08-03T06:07:58.500Z,0
2022-08-03T06:12:58.684Z,0
2022-08-03T06:18:02.395Z,0
2022-08-03T06:23:01.534Z,0
2022-08-03T06:27:58.771Z,0
2022-08-03T06:32:58.987Z,0
2022-08-03T06:37:58.167Z,0
2022-08-03T06:42:58.849Z,0
2022-08-03T06:47:58.709Z,0
2022-08-03T06:52:58.035Z,0
2022-08-03T06:58:03.745Z,0
2022-08-03T07:02:58.764Z,0
2022-08-03T07:07:58.920Z,0
2022-08-03T07:12:58.036Z,0
2022-08-03T07:17:58.325Z,0
2022-08-03T07:22:58.700Z,0
2022-08-03T07:27:58.368Z,0
2022-08-03T07:32:58.816Z,0
2022-08-03T07:37:58.169Z,0.4
2022-08-03T07:42:58.426Z,0.4
2022-08-03T07:47:58.604Z,0.4
2022-08-03T07:52:58.732Z,0.4
2022-08-03T07:57:58.958Z,0.4
2022-08-03T08:02:58.246Z,0.4
2022-08-03T08:07:58.733Z,0.4
2022-08-03T08:12:58.910Z,0.4
2022-08-03T08:17:59.067Z,0.7
2022-08-03T08:23:02.108Z,0.7
2022-08-03T08:28:33.806Z,1.5
2022-08-03T08:32:58.235Z,1.5
2022-08-03T08:38:05.903Z,1.3
2022-08-03T08:42:59.400Z,1.3
2022-08-03T08:48:08.097Z,0.4
2022-08-03T08:52:58.250Z,0.4
2022-08-03T08:57:59.013Z,0.9
2022-08-03T09:02:58.477Z,0.9
2022-08-03T09:07:58.930Z,0.4
2022-08-03T09:12:58.343Z,0.4
2022-08-03T09:17:58.239Z,1.6
2022-08-03T09:22:58.800Z,1.6
2022-08-03T09:27:58.352Z,2.2
2022-08-03T09:32:58.788Z,2.2
2022-08-03T09:38:14.520Z,2
2022-08-03T09:42:58.890Z,2
2022-08-03T09:47:58.303Z,2.2
2022-08-03T09:52:58.434Z,2.2
2022-08-03T09:57:58.630Z,1.1
2022-08-03T10:02:58.825Z,1.1
2022-08-03T10:07:59.085Z,2.5
2022-08-03T10:12:58.512Z,2.5
2022-08-03T10:17:58.708Z,2.7
2022-08-03T10:22:58.844Z,2.7
2022-08-03T10:27:59.013Z,2.2
2022-08-03T10:32:58.308Z,2.2
2022-08-03T10:37:59.218Z,1
2022-08-03T10:42:58.719Z,1
2022-08-03T10:47:58.956Z,0.9
2022-08-03T10:53:02.111Z,0.9
2022-08-03T10:57:59.295Z,1.8
2022-08-03T11:02:58.464Z,1.8
2022-08-03T11:07:59.103Z,1.3
2022-08-03T11:12:58.308Z,1.3
2022-08-03T11:17:59.464Z,1.8
2022-08-03T11:22:58.769Z,1.8
2022-08-03T11:27:58.995Z,1.3
2022-08-03T11:32:58.319Z,1.3
2022-08-03T11:38:05.744Z,1.8
2022-08-03T11:42:58.978Z,1.8
2022-08-03T11:47:59.120Z,1.5
2022-08-03T11:52:58.716Z,1.5
2022-08-03T11:59:22.222Z,0.9
2022-08-03T12:02:58.751Z,0.9
2022-08-03T12:08:06.824Z,0.9
2022-08-03T12:12:58.540Z,0.9
2022-08-03T12:17:58.648Z,1.1
2022-08-03T12:22:58.935Z,1.1
2022-08-03T12:27:59.113Z,0.9
2022-08-03T12:32:58.464Z,0.9
2022-08-03T12:37:58.744Z,1.3
2022-08-03T12:42:58.355Z,1.3
2022-08-03T12:47:58.597Z,1.8
2022-08-03T12:52:58.954Z,1.8
2022-08-03T12:57:58.214Z,1.8
2022-08-03T13:03:42.139Z,1.8
2022-08-03T13:07:59.281Z,0.9
2022-08-03T13:12:58.357Z,0.9
2022-08-03T13:17:58.645Z,0.9
2022-08-03T13:23:01.241Z,0.9
2022-08-03T13:28:06.519Z,0.9
2022-08-03T13:32:58.938Z,0.9
2022-08-03T13:37:59.512Z,1.3
2022-08-03T13:42:58.868Z,1.3
2022-08-03T13:47:59.196Z,0.9
2022-08-03T13:52:58.554Z,0.9
2022-08-03T13:58:07.301Z,1.3
2022-08-03T14:03:14.237Z,1.3
2022-08-03T14:08:05.458Z,0.2
2022-08-03T14:12:58.239Z,0.2
2022-08-03T14:17:59.160Z,1.3
2022-08-03T14:22:58.566Z,1.3
2022-08-03T14:27:58.747Z,0.4
2022-08-03T14:33:01.040Z,0.4
2022-08-03T14:37:59.256Z,0.4
2022-08-03T14:42:58.431Z,0.4
2022-08-03T14:50:42.886Z,0.9
2022-08-03T14:53:05.192Z,0.9
2022-08-03T14:57:59.048Z,0.4
2022-08-03T15:02:58.843Z,0.4
2022-08-03T15:07:59.020Z,0.4
2022-08-03T15:12:59.263Z,0.4
2022-08-03T15:18:00.973Z,0.4
2022-08-03T15:22:58.489Z,0.4
2022-08-03T15:28:04.825Z,0.4
2022-08-03T15:32:58.726Z,0.4
2022-08-03T15:37:59.190Z,0
2022-08-03T15:42:58.589Z,0
2022-08-03T15:47:59.056Z,0.9
2022-08-03T15:52:58.457Z,0.9
2022-08-03T15:59:13.855Z,0.4
2022-08-03T16:02:59.265Z,0.4
2022-08-03T16:08:06.324Z,0
2022-08-03T16:12:59.068Z,0
2022-08-03T16:17:59.291Z,0.9
2022-08-03T16:23:10.702Z,0.9
2022-08-03T16:28:14.136Z,0.4
2022-08-03T16:32:59.245Z,0.4
2022-08-03T16:37:58.384Z,0.2
2022-08-03T16:42:58.712Z,0.2
2022-08-03T16:48:06.199Z,0.4
2022-08-03T16:52:58.351Z,0.4
2022-08-03T16:58:00.738Z,0
2022-08-03T17:02:58.902Z,0
2022-08-03T17:07:59.225Z,0
2022-08-03T17:12:58.529Z,0
2022-08-03T17:18:02.440Z,0
2022-08-03T17:22:58.650Z,0
2022-08-03T17:28:57.487Z,0
2022-08-03T17:32:59.861Z,0
2022-08-03T17:38:06.577Z,0
2022-08-03T17:42:59.193Z,0
2022-08-03T17:47:59.357Z,0
2022-08-03T17:52:58.510Z,0
2022-08-03T17:58:03.471Z,0
2022-08-03T18:03:00.258Z,0
2022-08-03T18:08:09.411Z,0
2022-08-03T18:12:59.524Z,0
2022-08-03T18:18:02.999Z,0
2022-08-03T18:28:00.169Z,0
2022-08-03T18:34:17.378Z,0
2022-08-03T18:38:01.127Z,0
2022-08-03T18:43:09.033Z,0
2022-08-03T18:47:58.431Z,0
2022-08-03T18:52:58.907Z,0
2022-08-03T18:57:59.166Z,0
2022-08-03T19:02:59.336Z,0
2022-08-03T19:08:00.067Z,0
2022-08-03T19:13:00.776Z,0
2022-08-03T19:17:59.227Z,0
2022-08-03T19:22:59.453Z,0
2022-08-03T19:27:58.596Z,0
2022-08-03T19:32:59.528Z,0
2022-08-03T19:38:00.986Z,0
2022-08-03T19:43:00.498Z,0
2022-08-03T21:13:04.674Z,0
